createdAt,value
2023-02-23T00:02:07.874Z,101202.63
2023-02-23T00:04:35.847Z,101211.56
2023-02-23T00:07:03.216Z,101208.13
2023-02-23T00:09:35.850Z,101211.19
2023-02-23T00:12:08.527Z,101212.81
2023-02-23T00:14:38.701Z,101219.00
2023-02-23T00:17:11.175Z,101220.97
2023-02-23T00:19:38.125Z,101219.50
2023-02-23T00:22:05.142Z,101228.47
2023-02-23T00:24:32.181Z,101234.09
2023-02-23T00:26:59.122Z,101226.22
2023-02-23T00:29:26.110Z,101225.38
2023-02-23T00:31:53.408Z,101227.56
2023-02-23T00:34:22.271Z,101222.78
2023-02-23T00:36:51.840Z,101228.41
2023-02-23T00:39:21.919Z,101223.63
2023-02-23T00:41:49.900Z,101214.97
2023-02-23T00:44:17.177Z,101219.44
2023-02-23T00:46:44.939Z,101218.91
2023-02-23T00:49:12.990Z,101224.53
2023-02-23T00:51:40.139Z,101224.31
2023-02-23T00:54:07.773Z,101222.09
2023-02-23T00:56:35.097Z,101212.00
2023-02-23T00:59:02.088Z,101222.72
2023-02-23T01:01:29.586Z,101221.03
2023-02-23T01:03:56.562Z,101220.75
2023-02-23T01:06:23.743Z,101220.19
2023-02-23T01:08:51.336Z,101225.59
2023-02-23T01:11:21.642Z,101229.22
2023-02-23T01:13:49.586Z,101223.91
2023-02-23T01:16:18.044Z,101228.69
2023-02-23T01:18:45.728Z,101227.88
2023-02-23T01:21:15.897Z,101227.56
2023-02-23T01:23:43.159Z,101229.53
2023-02-23T01:26:13.575Z,101234.31
2023-02-23T01:28:40.488Z,101228.78
2023-02-23T01:31:09.395Z,101238.03
2023-02-23T01:33:36.483Z,101239.69
2023-02-23T01:36:03.496Z,101236.88
2023-02-23T01:38:30.504Z,101236.13
2023-02-23T01:40:57.417Z,101231.66
2023-02-23T01:43:27.974Z,101238.69
2023-02-23T01:45:56.327Z,101244.38
2023-02-23T01:48:24.612Z,101245.00
2023-02-23T01:50:55.018Z,101242.25
2023-02-23T01:53:23.016Z,101247.84
2023-02-23T01:55:51.374Z,101240.91
2023-02-23T01:58:20.188Z,101246.78
2023-02-23T02:00:50.129Z,101241.47
2023-02-23T02:03:25.351Z,101244.06
2023-02-23T02:05:52.869Z,101243.53
2023-02-23T02:08:19.867Z,101246.59
2023-02-23T02:10:47.810Z,101244.41
2023-02-23T02:13:18.640Z,101240.19
2023-02-23T02:15:54.099Z,101251.41
2023-02-23T02:18:23.852Z,101247.25
2023-02-23T02:21:04.924Z,101251.19
2023-02-23T02:23:37.240Z,101241.38
2023-02-23T02:26:10.193Z,101247.31
2023-02-23T02:28:38.860Z,101244.50
2023-02-23T02:31:08.962Z,101255.19
2023-02-23T02:33:38.176Z,101251.53
2023-02-23T02:36:08.386Z,101251.31
2023-02-23T02:38:35.668Z,101256.06
2023-02-23T02:41:09.397Z,101245.75
2023-02-23T02:43:43.491Z,101246.88
2023-02-23T02:46:13.531Z,101242.44
2023-02-23T02:48:42.503Z,101241.88
2023-02-23T02:51:18.985Z,101237.94
2023-02-23T02:53:51.794Z,101231.25
2023-02-23T02:56:20.241Z,101235.47
2023-02-23T02:58:50.334Z,101237.44
2023-02-23T03:01:21.506Z,101237.22
2023-02-23T03:03:51.991Z,101241.69
2023-02-23T03:06:23.712Z,101241.13
2023-02-23T03:08:58.501Z,101239.50
2023-02-23T03:11:31.363Z,101241.47
2023-02-23T03:14:04.498Z,101244.25
2023-02-23T03:16:35.817Z,101241.22
2023-02-23T03:19:09.048Z,101241.78
2023-02-23T03:21:46.551Z,101238.16
2023-02-23T03:24:22.715Z,101253.31
2023-02-23T03:26:59.667Z,101244.38
2023-02-23T03:29:30.915Z,101244.38
2023-02-23T03:32:02.392Z,101247.78
2023-02-23T03:34:37.217Z,101248.06
2023-02-23T03:37:12.474Z,101250.63
2023-02-23T03:39:45.459Z,101244.69
2023-02-23T03:42:19.320Z,101243.34
2023-02-23T03:44:51.821Z,101255.66
2023-02-23T03:47:24.181Z,101256.78
2023-02-23T03:49:54.482Z,101257.13
2023-02-23T03:52:28.244Z,101257.41
2023-02-23T03:55:01.672Z,101261.31
2023-02-23T03:57:34.851Z,101264.72
2023-02-23T04:00:06.793Z,101265.00
2023-02-23T04:02:38.756Z,101269.50
2023-02-23T04:05:11.490Z,101272.91
2023-02-23T04:07:44.066Z,101274.84
2023-02-23T04:10:14.860Z,101279.91
2023-02-23T04:12:47.781Z,101278.25
2023-02-23T04:15:15.136Z,101281.63
2023-02-23T04:17:42.904Z,101280.78
2023-02-23T04:20:11.880Z,101267.94
2023-02-23T04:22:39.041Z,101275.78
2023-02-23T04:25:06.583Z,101278.88
2023-02-23T04:27:33.424Z,101277.22
2023-02-23T04:30:00.252Z,101271.59
2023-02-23T04:32:27.282Z,101269.63
2023-02-23T04:34:54.287Z,101279.44
2023-02-23T04:37:21.145Z,101274.94
2023-02-23T04:39:50.187Z,101285.31
2023-02-23T04:42:18.023Z,101287.59
2023-02-23T04:44:45.435Z,101287.03
2023-02-23T04:47:12.478Z,101289.00
2023-02-23T04:49:39.355Z,101290.16
2023-02-23T04:52:06.311Z,101290.44
2023-02-23T04:54:33.146Z,101286.22
2023-02-23T04:56:59.984Z,101289.34
2023-02-23T04:59:27.256Z,101295.22
2023-02-23T05:01:54.074Z,101288.50
2023-02-23T05:04:20.939Z,101291.91
2023-02-23T05:06:48.210Z,101284.63
2023-02-23T05:09:15.209Z,101289.66
2023-02-23T05:11:42.116Z,101296.94
2023-02-23T05:14:10.062Z,101291.34
2023-02-23T05:16:36.933Z,101300.34
2023-02-23T05:19:03.763Z,101300.63
2023-02-23T05:21:30.596Z,101305.66
2023-02-23T05:23:58.117Z,101317.69
2023-02-23T05:26:25.129Z,101318.00
2023-02-23T05:28:52.042Z,101322.78
2023-02-23T05:31:19.431Z,101315.50
2023-02-23T05:33:46.704Z,101320.25
2023-02-23T05:36:14.373Z,101316.91
2023-02-23T05:38:41.270Z,101315.25
2023-02-23T05:41:09.119Z,101310.47
2023-02-23T05:43:36.390Z,101311.59
2023-02-23T05:46:06.409Z,101315.81
2023-02-23T05:48:34.324Z,101321.41
2023-02-23T05:51:01.758Z,101325.34
2023-02-23T05:53:28.685Z,101320.28
2023-02-23T05:55:55.613Z,101319.66
2023-02-23T05:58:22.482Z,101324.41
2023-02-23T06:00:49.324Z,101335.03
2023-02-23T06:03:16.276Z,101333.03
2023-02-23T06:05:43.425Z,101341.94
2023-02-23T06:08:10.357Z,101345.28
2023-02-23T06:10:37.182Z,101348.88
2023-02-23T06:13:04.140Z,101351.91
2023-02-23T06:15:31.647Z,101363.06
2023-02-23T06:17:58.451Z,101368.66
2023-02-23T06:20:25.282Z,101375.06
2023-02-23T06:22:52.176Z,101372.22
2023-02-23T06:25:19.064Z,101376.94
2023-02-23T06:27:45.875Z,101382.50
2023-02-23T06:30:12.959Z,101376.53
2023-02-23T06:32:39.864Z,101386.59
2023-02-23T06:35:07.664Z,101389.38
2023-02-23T06:37:35.310Z,101392.97
2023-02-23T06:40:02.541Z,101391.75
2023-02-23T06:42:29.443Z,101394.53
2023-02-23T06:44:56.247Z,101403.47
2023-02-23T06:47:23.126Z,101400.59
2023-02-23T06:49:50.014Z,101407.84
2023-02-23T06:52:16.894Z,101422.09
2023-02-23T06:54:43.914Z,101422.06
2023-02-23T06:57:10.909Z,101429.31
2023-02-23T06:59:37.908Z,101419.72
2023-02-23T07:02:06.065Z,101422.44
2023-02-23T07:04:33.559Z,101424.34
2023-02-23T07:07:00.414Z,101425.41
2023-02-23T07:09:29.148Z,101431.81
2023-02-23T07:11:57.221Z,101429.25
2023-02-23T07:14:26.856Z,101435.13
2023-02-23T07:16:54.664Z,101429.44
2023-02-23T07:19:21.561Z,101430.81
2023-02-23T07:21:48.410Z,101428.78
2023-02-23T07:24:15.387Z,101436.59
2023-02-23T07:26:47.006Z,101442.75
2023-02-23T07:29:13.896Z,101442.16
2023-02-23T07:31:41.394Z,101455.91
2023-02-23T07:34:09.390Z,101457.75
2023-02-23T07:36:36.487Z,101463.75
2023-02-23T07:39:05.103Z,101464.81
2023-02-23T07:41:32.111Z,101466.72
2023-02-23T07:43:59.752Z,101474.00
2023-02-23T07:46:27.076Z,101477.88
2023-02-23T07:48:54.038Z,101478.72
2023-02-23T07:51:21.319Z,101487.69
2023-02-23T07:53:49.431Z,101484.06
2023-02-23T07:56:16.362Z,101493.59
2023-02-23T07:58:44.277Z,101493.91
2023-02-23T08:01:11.847Z,101491.13
2023-02-23T08:03:39.695Z,101492.53
2023-02-23T08:06:06.927Z,101502.06
2023-02-23T08:08:35.693Z,101498.75
2023-02-23T08:11:04.070Z,101495.63
2023-02-23T08:13:32.228Z,101508.25
2023-02-23T08:15:59.443Z,101515.56
2023-02-23T08:18:26.532Z,101511.59
2023-02-23T08:20:56.646Z,101511.06
2023-02-23T08:23:23.587Z,101519.50
2023-02-23T08:25:50.844Z,101523.13
2023-02-23T08:28:17.896Z,101523.09
2023-02-23T08:30:45.040Z,101519.13
2023-02-23T08:33:12.092Z,101524.50
2023-02-23T08:35:39.024Z,101518.66
2023-02-23T08:38:06.220Z,101514.38
2023-02-23T08:40:33.243Z,101521.75
2023-02-23T08:43:00.156Z,101514.16
2023-02-23T08:45:29.665Z,101525.38
2023-02-23T08:47:57.197Z,101515.22
2023-02-23T08:50:27.244Z,101518.84
2023-02-23T08:52:54.540Z,101521.34
2023-02-23T08:55:22.155Z,101524.94
2023-02-23T08:57:49.089Z,101513.97
2023-02-23T09:00:17.113Z,101517.56
2023-02-23T09:02:45.653Z,101520.88
2023-02-23T09:05:12.634Z,101526.72
2023-02-23T09:07:40.569Z,101534.88
2023-02-23T09:10:08.248Z,101524.75
2023-02-23T09:12:35.268Z,101537.38
2023-02-23T09:15:02.715Z,101548.31
2023-02-23T09:17:29.828Z,101546.34
2023-02-23T09:19:56.949Z,101551.94
2023-02-23T09:22:23.959Z,101550.81
2023-02-23T09:24:50.953Z,101551.66
2023-02-23T09:27:17.948Z,101552.19
2023-02-23T09:29:44.940Z,101553.34
2023-02-23T09:32:12.285Z,101561.50
2023-02-23T09:34:39.356Z,101559.88
2023-02-23T09:37:06.501Z,101569.72
2023-02-23T09:39:38.521Z,101573.63
2023-02-23T09:42:09.004Z,101569.16
2023-02-23T09:44:39.176Z,101578.16
2023-02-23T09:47:07.448Z,101578.16
2023-02-23T09:49:38.290Z,101578.47
2023-02-23T09:52:10.223Z,101578.75
2023-02-23T09:54:37.413Z,101577.06
2023-02-23T09:57:07.172Z,101585.50
2023-02-23T09:59:35.497Z,101595.91
2023-02-23T10:02:02.834Z,101600.16
2023-02-23T10:04:30.629Z,101595.09
2023-02-23T10:07:00.929Z,101600.16
2023-02-23T10:09:39.364Z,101592.00
2023-02-23T10:12:10.524Z,101595.66
2023-02-23T10:14:40.617Z,101600.16
2023-02-23T10:17:12.134Z,101602.97
2023-02-23T10:19:41.047Z,101605.22
2023-02-23T10:22:09.623Z,101615.38
2023-02-23T10:24:39.660Z,101608.06
2023-02-23T10:27:10.562Z,101613.69
2023-02-23T10:29:38.897Z,101615.13
2023-02-23T10:32:08.374Z,101624.16
2023-02-23T10:34:37.403Z,101628.63
2023-02-23T10:37:06.396Z,101624.69
2023-02-23T10:39:34.825Z,101630.91
2023-02-23T10:42:06.312Z,101620.78
2023-02-23T10:44:33.272Z,101618.81
2023-02-23T10:47:03.110Z,101608.72
2023-02-23T10:49:39.583Z,101621.69
2023-02-23T10:52:09.642Z,101626.72
2023-02-23T10:54:36.988Z,101616.66
2023-02-23T10:57:05.562Z,101621.19
2023-02-23T10:59:33.175Z,101612.50
2023-02-23T11:02:03.197Z,101617.00
2023-02-23T11:04:31.880Z,101633.59
2023-02-23T11:07:02.202Z,101638.38
2023-02-23T11:09:44.403Z,101642.91
2023-02-23T11:12:22.339Z,101644.06
2023-02-23T11:14:51.257Z,101644.38
2023-02-23T11:17:21.314Z,101642.13
2023-02-23T11:19:48.358Z,101649.16
2023-02-23T11:22:22.678Z,101649.75
2023-02-23T11:24:50.047Z,101651.16
2023-02-23T11:27:21.464Z,101645.81
2023-02-23T11:29:51.330Z,101662.41
2023-02-23T11:32:21.293Z,101659.06
2023-02-23T11:34:49.687Z,101655.44
2023-02-23T11:37:18.223Z,101668.38
2023-02-23T11:39:48.302Z,101664.16
2023-02-23T11:42:19.662Z,101661.06
2023-02-23T11:44:49.980Z,101665.31
2023-02-23T11:47:19.454Z,101664.16
2023-02-23T11:49:48.619Z,101655.72
2023-02-23T11:52:18.746Z,101659.09
2023-02-23T11:54:50.908Z,101637.78
2023-02-23T11:57:22.239Z,101641.69
2023-02-23T11:59:50.032Z,101645.69
2023-02-23T12:02:21.119Z,101647.66
2023-02-23T12:04:48.164Z,101649.34
2023-02-23T12:07:18.201Z,101654.69
2023-02-23T12:09:46.475Z,101654.16
2023-02-23T12:12:17.124Z,101652.22
2023-02-23T12:14:50.528Z,101662.59
2023-02-23T12:17:20.743Z,101666.81
2023-02-23T12:19:50.247Z,101666.81
2023-02-23T12:22:20.533Z,101669.06
2023-02-23T12:24:49.107Z,101665.69
2023-02-23T12:27:18.722Z,101659.81
2023-02-23T12:29:48.772Z,101650.03
2023-02-23T12:32:19.188Z,101661.00
2023-02-23T12:34:49.579Z,101660.16
2023-02-23T12:37:19.669Z,101666.31
2023-02-23T12:39:49.728Z,101653.13
2023-02-23T12:42:23.534Z,101654.00
2023-02-23T12:44:53.888Z,101650.66
2023-02-23T12:47:25.087Z,101651.19
2023-02-23T12:49:55.625Z,101657.97
2023-02-23T12:52:26.132Z,101660.19
2023-02-23T12:54:54.694Z,101653.47
2023-02-23T12:57:24.999Z,101662.16
2023-02-23T12:59:55.234Z,101658.50
2023-02-23T13:02:27.759Z,101657.13
2023-02-23T13:04:58.145Z,101654.88
2023-02-23T13:07:28.280Z,101652.38
2023-02-23T13:10:04.689Z,101657.13
2023-02-23T13:12:36.536Z,101664.13
2023-02-23T13:15:06.750Z,101665.00
2023-02-23T13:17:36.590Z,101655.47
2023-02-23T13:20:07.335Z,101656.06
2023-02-23T13:22:34.741Z,101651.28
2023-02-23T13:25:05.128Z,101655.47
2023-02-23T13:27:35.418Z,101655.78
2023-02-23T13:30:02.826Z,101650.44
2023-02-23T13:32:32.499Z,101654.38
2023-02-23T13:35:01.939Z,101648.75
2023-02-23T13:37:35.265Z,101645.69
2023-02-23T13:40:02.691Z,101652.16
2023-02-23T13:42:31.610Z,101655.22
2023-02-23T13:45:00.115Z,101639.50
2023-02-23T13:47:34.489Z,101644.25
2023-02-23T13:50:02.958Z,101646.19
2023-02-23T13:52:33.584Z,101645.34
2023-02-23T13:55:04.883Z,101657.97
2023-02-23T13:57:32.645Z,101657.97
2023-02-23T14:00:00.436Z,101661.28
2023-02-23T14:02:31.148Z,101652.84
2023-02-23T14:05:01.954Z,101651.72
2023-02-23T14:07:31.265Z,101662.59
2023-02-23T14:10:04.068Z,101659.50
2023-02-23T14:12:34.288Z,101674.03
2023-02-23T14:15:04.354Z,101664.47
2023-02-23T14:17:34.471Z,101662.50
2023-02-23T14:20:03.608Z,101666.97
2023-02-23T14:22:31.944Z,101662.16
2023-02-23T14:25:02.033Z,101661.84
2023-02-23T14:27:41.093Z,101674.19
2023-02-23T14:30:11.745Z,101683.38
2023-02-23T14:32:40.261Z,101682.22
2023-02-23T14:35:27.325Z,101693.44
2023-02-23T14:37:56.855Z,101693.41
2023-02-23T14:40:29.855Z,101689.72
2023-02-23T14:42:58.465Z,101688.00
2023-02-23T14:45:27.555Z,101681.22
2023-02-23T14:47:57.093Z,101688.75
2023-02-23T14:50:26.871Z,101685.06
2023-02-23T14:52:54.781Z,101678.88
2023-02-23T14:55:24.433Z,101674.88
2023-02-23T14:57:52.880Z,101682.44
2023-02-23T15:00:24.303Z,101687.47
2023-02-23T15:02:54.603Z,101687.72
2023-02-23T15:05:24.009Z,101678.69
2023-02-23T15:07:52.352Z,101691.34
2023-02-23T15:10:22.981Z,101699.50
2023-02-23T15:12:50.976Z,101696.34
2023-02-23T15:15:19.973Z,101701.69
2023-02-23T15:17:48.768Z,101696.06
2023-02-23T15:20:18.038Z,101699.72
2023-02-23T15:22:47.764Z,101699.72
2023-02-23T15:25:17.586Z,101709.00
2023-02-23T15:27:45.787Z,101705.34
2023-02-23T15:30:15.935Z,101711.25
2023-02-23T15:32:43.348Z,101706.72
2023-02-23T15:35:12.425Z,101705.88
2023-02-23T15:40:12.200Z,101720.50
2023-02-23T15:42:41.600Z,101727.47
2023-02-23T15:45:11.586Z,101719.03
2023-02-23T15:47:39.007Z,101724.97
2023-02-23T15:50:08.219Z,101722.47
2023-02-23T15:52:36.765Z,101723.59
2023-02-23T15:55:08.321Z,101711.25
2023-02-23T15:57:45.213Z,101723.09
2023-02-23T16:00:18.091Z,101721.97
2023-02-23T16:02:45.298Z,101718.59
2023-02-23T16:05:15.491Z,101721.41
2023-02-23T16:07:43.824Z,101724.72
2023-02-23T16:10:14.047Z,101720.81
2023-02-23T16:12:45.230Z,101728.16
2023-02-23T16:15:15.560Z,101727.59
2023-02-23T16:17:43.176Z,101724.22
2023-02-23T16:20:11.868Z,101715.78
2023-02-23T16:22:40.726Z,101728.75
2023-02-23T16:25:13.359Z,101726.22
2023-02-23T16:27:40.777Z,101718.13
2023-02-23T16:30:10.931Z,101716.69
2023-02-23T16:32:39.230Z,101713.63
2023-02-23T16:35:09.589Z,101709.97
2023-02-23T16:37:49.926Z,101711.69
2023-02-23T16:40:17.108Z,101705.84
2023-02-23T16:42:44.118Z,101711.13
2023-02-23T16:45:15.192Z,101716.53
2023-02-23T16:47:43.902Z,101716.00
2023-02-23T16:50:20.973Z,101728.41
2023-02-23T16:52:52.144Z,101709.59
2023-02-23T16:58:18.646Z,101722.56
2023-02-23T17:00:45.834Z,101724.28
2023-02-23T17:03:17.056Z,101729.09
2023-02-23T17:05:44.143Z,101728.56
2023-02-23T17:08:12.325Z,101730.25
2023-02-23T17:10:42.465Z,101733.63
2023-02-23T17:13:15.773Z,101735.91
2023-02-23T17:15:51.946Z,101739.00
2023-02-23T17:18:19.883Z,101731.97
2023-02-23T17:20:47.041Z,101731.69
2023-02-23T17:23:15.731Z,101743.25
2023-02-23T17:25:44.117Z,101739.59
2023-02-23T17:28:13.068Z,101744.13
2023-02-23T17:30:40.482Z,101748.06
2023-02-23T17:33:07.697Z,101738.22
2023-02-23T17:35:37.741Z,101741.03
2023-02-23T17:38:05.198Z,101742.72
2023-02-23T17:40:35.131Z,101750.84
2023-02-23T17:43:05.131Z,101748.31
2023-02-23T17:45:32.262Z,101751.69
2023-02-23T17:47:59.464Z,101752.22
2023-02-23T17:50:27.373Z,101761.72
2023-02-23T17:52:54.608Z,101758.09
2023-02-23T17:55:22.084Z,101758.09
2023-02-23T17:57:49.480Z,101747.69
2023-02-23T18:00:18.649Z,101756.13
2023-02-23T18:02:46.100Z,101752.19
2023-02-23T18:05:13.908Z,101756.69
2023-02-23T18:07:41.287Z,101758.66
2023-02-23T18:10:08.982Z,101756.69
2023-02-23T18:12:37.607Z,101767.34
2023-02-23T18:15:05.477Z,101771.00
2023-02-23T18:17:34.115Z,101778.88
2023-02-23T18:20:02.358Z,101775.50
2023-02-23T18:22:29.734Z,101773.81
2023-02-23T18:24:58.242Z,101781.41
2023-02-23T18:27:26.595Z,101782.00
2023-02-23T18:29:53.857Z,101789.84
2023-02-23T18:32:21.411Z,101788.72
2023-02-23T18:34:48.634Z,101790.16
2023-02-23T18:37:25.633Z,101793.22
2023-02-23T18:39:54.884Z,101786.22
2023-02-23T18:42:22.291Z,101801.94
2023-02-23T18:44:49.532Z,101802.78
2023-02-23T18:47:16.574Z,101800.28
2023-02-23T18:49:44.107Z,101799.41
2023-02-23T18:52:11.373Z,101796.03
2023-02-23T18:54:40.794Z,101804.19
2023-02-23T18:57:07.993Z,101798.59
2023-02-23T18:59:34.992Z,101805.06
2023-02-23T19:02:02.072Z,101800.88
2023-02-23T19:04:29.117Z,101798.34
2023-02-23T19:06:56.121Z,101811.25
2023-02-23T19:09:23.290Z,101806.50
2023-02-23T19:11:51.494Z,101813.50
2023-02-23T19:14:20.885Z,101796.66
2023-02-23T19:16:49.657Z,101792.22
2023-02-23T19:19:17.109Z,101796.97
2023-02-23T19:21:44.162Z,101797.81
2023-02-23T19:24:11.279Z,101789.09
2023-02-23T19:26:39.128Z,101795.53
2023-02-23T19:29:06.883Z,101791.88
2023-02-23T19:31:34.604Z,101786.28
2023-02-23T19:34:06.380Z,101785.69
2023-02-23T19:36:35.792Z,101780.38
2023-02-23T19:39:11.393Z,101781.16
2023-02-23T19:41:39.975Z,101783.72
2023-02-23T19:44:07.391Z,101784.81
2023-02-23T19:46:35.475Z,101779.75
2023-02-23T19:49:02.890Z,101774.09
2023-02-23T19:51:30.277Z,101769.59
2023-02-23T19:53:57.866Z,101777.44
2023-02-23T19:56:25.469Z,101767.03
2023-02-23T19:58:52.951Z,101764.75
2023-02-23T20:01:21.697Z,101767.53
2023-02-23T20:03:55.635Z,101759.34
2023-02-23T20:06:24.562Z,101765.22
2023-02-23T20:08:53.007Z,101765.50
2023-02-23T20:11:20.503Z,101754.25
2023-02-23T20:13:47.778Z,101759.28
2023-02-23T20:16:15.765Z,101754.47
2023-02-23T20:18:43.611Z,101757.53
2023-02-23T20:21:14.094Z,101761.44
2023-02-23T20:23:41.998Z,101761.41
2023-02-23T20:26:10.699Z,101761.63
2023-02-23T20:28:38.375Z,101761.91
2023-02-23T20:31:05.834Z,101761.88
2023-02-23T20:33:33.090Z,101762.13
2023-02-23T20:36:00.711Z,101762.09
2023-02-23T20:38:29.017Z,101752.25
2023-02-23T20:40:59.296Z,101759.81
2023-02-23T20:43:28.060Z,101756.38
2023-02-23T20:45:55.515Z,101761.13
2023-02-23T20:48:23.309Z,101764.19
2023-02-23T20:50:54.133Z,101766.44
2023-02-23T20:53:22.389Z,101761.88
2023-02-23T20:55:49.748Z,101756.50
2023-02-23T20:58:18.284Z,101758.72
2023-02-23T21:00:45.465Z,101750.00
2023-02-23T21:03:12.564Z,101753.38
2023-02-23T21:05:42.651Z,101763.44
2023-02-23T21:08:10.095Z,101755.84
2023-02-23T21:10:38.423Z,101752.75
2023-02-23T21:13:06.552Z,101748.81
2023-02-23T21:15:35.361Z,101750.78
2023-02-23T21:18:02.523Z,101747.97
2023-02-23T21:20:29.925Z,101734.19
2023-02-23T21:22:56.918Z,101745.16
2023-02-23T21:25:25.115Z,101746.84
2023-02-23T21:27:52.300Z,101745.69
2023-02-23T21:30:21.116Z,101747.09
2023-02-23T21:32:49.360Z,101754.63
2023-02-23T21:35:16.868Z,101752.34
2023-02-23T21:37:44.675Z,101750.09
2023-02-23T21:40:13.187Z,101758.25
2023-02-23T21:42:42.442Z,101755.94
2023-02-23T21:45:11.487Z,101744.09
2023-02-23T21:47:39.842Z,101741.81
2023-02-23T21:50:10.896Z,101752.78
2023-02-23T21:52:38.113Z,101742.06
2023-02-23T21:55:07.878Z,101740.94
2023-02-23T21:57:40.229Z,101734.47
2023-02-23T22:00:08.599Z,101745.47
2023-02-23T22:02:38.779Z,101731.13
2023-02-23T22:05:06.334Z,101734.22
2023-02-23T22:07:34.213Z,101733.88
2023-02-23T22:10:01.484Z,101731.34
2023-02-23T22:12:28.489Z,101731.56
2023-02-23T22:14:56.092Z,101733.25
2023-02-23T22:17:23.165Z,101718.56
2023-02-23T22:19:51.178Z,101725.88
2023-02-23T22:22:20.376Z,101718.81
2023-02-23T22:24:49.246Z,101726.13
2023-02-23T22:27:16.525Z,101731.13
2023-02-23T22:29:43.496Z,101719.88
2023-02-23T22:32:10.763Z,101726.06
2023-02-23T22:34:38.326Z,101727.97
2023-02-23T22:37:05.370Z,101735.28
2023-02-23T22:39:33.733Z,101724.88
2023-02-23T22:42:09.452Z,101720.03
2023-02-23T22:44:37.644Z,101720.03
2023-02-23T22:47:04.765Z,101712.75
2023-02-23T22:49:31.985Z,101713.91
2023-02-23T22:51:58.690Z,101723.19
2023-02-23T22:54:26.749Z,101705.75
2023-02-23T22:56:55.823Z,101701.84
2023-02-23T22:59:22.607Z,101699.34
2023-02-23T23:01:50.720Z,101702.47
2023-02-23T23:04:17.567Z,101697.97
2023-02-23T23:06:44.385Z,101702.53
2023-02-23T23:09:12.443Z,101710.97
2023-02-23T23:11:41.933Z,101705.13
2023-02-23T23:14:10.473Z,101703.44
2023-02-23T23:16:48.365Z,101709.91
2023-02-23T23:19:17.125Z,101696.41
2023-02-23T23:21:45.288Z,101697.84
2023-02-23T23:24:13.854Z,101692.84
2023-02-23T23:26:41.098Z,101696.19
2023-02-23T23:29:10.343Z,101691.41
2023-02-23T23:31:38.374Z,101680.06
2023-02-23T23:34:09.575Z,101673.84
2023-02-23T23:36:38.184Z,101671.81
2023-02-23T23:39:06.510Z,101660.25
2023-02-23T23:41:35.623Z,101658.50
2023-02-23T23:44:05.428Z,101659.03
2023-02-23T23:46:34.309Z,101663.75
2023-02-23T23:49:02.724Z,101651.91
2023-02-23T23:51:31.524Z,101644.28
2023-02-23T23:53:59.443Z,101646.78
2023-02-23T23:56:26.747Z,101642.84
2023-02-23T23:58:56.173Z,101647.34
